createdAt,value
2023-03-04T00:00:32.444Z,1.80
2023-03-04T00:03:19.774Z,1.80
2023-03-04T00:05:47.371Z,1.70
2023-03-04T00:08:14.771Z,1.60
2023-03-04T00:10:42.043Z,1.70
2023-03-04T00:13:09.381Z,1.60
2023-03-04T00:15:36.677Z,1.60
2023-03-04T00:18:03.935Z,1.60
2023-03-04T00:20:31.338Z,1.70
2023-03-04T00:22:58.347Z,1.70
2023-03-04T00:25:25.641Z,1.80
2023-03-04T00:27:52.724Z,1.80
2023-03-04T00:30:20.303Z,1.80
2023-03-04T00:32:47.447Z,1.90
2023-03-04T00:35:14.834Z,1.90
2023-03-04T00:37:43.983Z,1.90
2023-03-04T00:40:11.918Z,1.90
2023-03-04T00:42:39.206Z,1.90
2023-03-04T00:45:07.698Z,1.90
2023-03-04T00:47:34.940Z,2.00
2023-03-04T00:50:02.626Z,2.00
2023-03-04T00:52:29.841Z,2.00
2023-03-04T00:54:57.311Z,2.10
2023-03-04T00:57:24.334Z,2.10
2023-03-04T00:59:51.755Z,2.00
2023-03-04T01:02:19.030Z,2.00
2023-03-04T01:04:46.383Z,2.00
2023-03-04T01:07:13.695Z,2.10
2023-03-04T01:09:41.005Z,2.00
2023-03-04T01:12:08.047Z,2.10
2023-03-04T01:14:35.483Z,2.00
2023-03-04T01:17:02.653Z,2.10
2023-03-04T01:19:29.972Z,2.10
2023-03-04T01:21:57.026Z,2.10
2023-03-04T01:24:24.664Z,2.10
2023-03-04T01:26:51.837Z,2.10
2023-03-04T01:29:19.294Z,2.20
2023-03-04T01:31:46.360Z,2.20
2023-03-04T01:34:13.926Z,2.10
2023-03-04T01:36:41.039Z,2.60
2023-03-04T01:39:08.345Z,2.50
2023-03-04T01:41:35.529Z,2.10
2023-03-04T01:44:03.154Z,2.20
2023-03-04T01:46:31.566Z,2.00
2023-03-04T01:49:00.003Z,2.20
2023-03-04T01:51:27.358Z,2.20
2023-03-04T01:53:55.061Z,2.20
2023-03-04T01:56:40.030Z,2.10
2023-03-04T01:59:08.819Z,2.20
2023-03-04T02:01:36.812Z,2.20
2023-03-04T02:04:08.127Z,2.40
2023-03-04T02:06:40.307Z,2.20
2023-03-04T02:09:09.089Z,2.20
2023-03-04T02:11:37.563Z,2.20
2023-03-04T02:14:05.904Z,2.30
2023-03-04T02:16:33.682Z,2.50
2023-03-04T02:19:01.720Z,2.30
2023-03-04T02:21:33.723Z,2.30
2023-03-04T02:24:26.941Z,2.30
2023-03-04T02:26:54.268Z,2.30
2023-03-04T02:29:22.211Z,2.30
2023-03-04T02:31:52.096Z,2.30
2023-03-04T02:34:22.566Z,2.30
2023-03-04T02:36:51.951Z,2.30
2023-03-04T02:39:33.080Z,2.50
2023-03-04T02:42:01.739Z,2.30
2023-03-04T02:44:34.703Z,2.30
2023-03-04T02:47:02.290Z,2.30
2023-03-04T02:49:32.695Z,2.60
2023-03-04T02:52:13.377Z,2.20
2023-03-04T02:54:41.630Z,2.50
2023-03-04T02:57:11.107Z,2.60
2023-03-04T02:59:42.332Z,2.30
2023-03-04T03:02:13.302Z,2.40
2023-03-04T03:04:41.411Z,2.40
2023-03-04T03:07:12.043Z,2.40
2023-03-04T03:09:40.128Z,2.40
2023-03-04T03:12:07.474Z,2.40
2023-03-04T03:14:34.795Z,2.40
2023-03-04T03:17:03.738Z,2.40
2023-03-04T03:19:32.277Z,2.60
2023-03-04T03:22:01.293Z,2.40
2023-03-04T03:24:28.693Z,2.40
2023-03-04T03:29:24.884Z,2.40
2023-03-04T03:31:52.215Z,2.30
2023-03-04T03:34:21.744Z,2.60
2023-03-04T03:36:49.568Z,2.20
2023-03-04T03:39:17.428Z,3.10
2023-03-04T03:41:44.443Z,2.40
2023-03-04T03:44:11.674Z,2.50
2023-03-04T03:46:38.670Z,2.70
2023-03-04T03:49:06.005Z,2.40
2023-03-04T03:51:35.603Z,2.50
2023-03-04T03:54:02.914Z,2.40
2023-03-04T03:56:30.154Z,3.50
2023-03-04T03:58:57.921Z,2.50
2023-03-04T04:01:24.952Z,2.30
2023-03-04T04:03:52.366Z,4.50
2023-03-04T04:06:19.836Z,3.00
2023-03-04T04:08:47.303Z,2.50
2023-03-04T04:11:14.439Z,2.60
2023-03-04T04:13:42.021Z,2.50
2023-03-04T04:16:10.909Z,2.60
2023-03-04T04:18:38.470Z,2.60
2023-03-04T04:21:05.702Z,2.40
2023-03-04T04:23:33.048Z,2.70
2023-03-04T04:26:00.050Z,2.60
2023-03-04T04:28:27.359Z,2.60
2023-03-04T04:30:54.723Z,2.60
2023-03-04T04:33:22.157Z,2.60
2023-03-04T04:35:49.239Z,2.60
2023-03-04T04:38:19.253Z,2.60
2023-03-04T04:40:46.333Z,2.60
2023-03-04T04:43:15.907Z,2.60
2023-03-04T04:45:42.975Z,2.70
2023-03-04T04:48:10.316Z,2.70
2023-03-04T04:50:37.465Z,2.70
2023-03-04T04:53:04.816Z,2.70
2023-03-04T04:55:32.106Z,2.70
2023-03-04T04:57:59.789Z,2.70
2023-03-04T05:00:27.136Z,2.70
2023-03-04T05:02:54.469Z,2.80
2023-03-04T05:05:21.518Z,2.70
2023-03-04T05:07:48.939Z,2.70
2023-03-04T05:10:16.109Z,2.80
2023-03-04T05:12:44.928Z,2.70
2023-03-04T05:15:12.090Z,2.70
2023-03-04T05:17:39.408Z,2.80
2023-03-04T05:20:07.259Z,2.80
2023-03-04T05:22:34.955Z,2.80
2023-03-04T05:25:02.136Z,2.70
2023-03-04T05:27:29.518Z,2.80
2023-03-04T05:29:59.807Z,2.80
2023-03-04T05:32:27.652Z,2.80
2023-03-04T05:34:54.687Z,2.90
2023-03-04T05:37:22.021Z,2.80
2023-03-04T05:39:49.261Z,2.90
2023-03-04T05:42:16.760Z,2.90
2023-03-04T05:44:43.814Z,2.90
2023-03-04T05:47:11.141Z,2.90
2023-03-04T05:49:41.187Z,2.90
2023-03-04T05:52:08.624Z,2.90
2023-03-04T05:54:35.680Z,2.90
2023-03-04T05:57:03.059Z,2.90
2023-03-04T05:59:30.043Z,3.00
2023-03-04T06:01:57.360Z,3.00
2023-03-04T06:04:24.379Z,3.00
2023-03-04T06:06:51.620Z,3.00
2023-03-04T06:09:21.011Z,3.00
2023-03-04T06:11:48.443Z,3.00
2023-03-04T06:14:15.501Z,3.00
2023-03-04T06:16:42.912Z,3.10
2023-03-04T06:19:09.908Z,3.00
2023-03-04T06:21:37.246Z,3.00
2023-03-04T06:24:04.465Z,3.10
2023-03-04T06:26:32.162Z,3.10
2023-03-04T06:28:59.137Z,3.10
2023-03-04T06:31:26.477Z,3.10
2023-03-04T06:33:53.547Z,3.20
2023-03-04T06:36:20.852Z,3.20
2023-03-04T06:38:47.919Z,3.30
2023-03-04T06:41:15.687Z,3.30
2023-03-04T06:43:42.909Z,3.40
2023-03-04T06:46:10.343Z,3.40
2023-03-04T06:48:37.578Z,3.40
2023-03-04T06:51:07.087Z,3.40
2023-03-04T06:53:34.111Z,3.50
2023-03-04T06:56:01.516Z,3.50
2023-03-04T06:58:29.734Z,3.40
2023-03-04T07:00:57.132Z,4.60
2023-03-04T07:03:24.172Z,3.50
2023-03-04T07:05:51.413Z,3.60
2023-03-04T07:08:20.534Z,3.60
2023-03-04T07:10:49.677Z,3.60
2023-03-04T07:13:16.756Z,3.70
2023-03-04T07:15:44.082Z,3.70
2023-03-04T07:18:11.145Z,4.20
2023-03-04T07:20:41.311Z,3.80
2023-03-04T07:23:08.482Z,3.80
2023-03-04T07:25:39.995Z,3.90
2023-03-04T07:28:07.031Z,4.20
2023-03-04T07:30:34.364Z,4.40
2023-03-04T07:33:01.356Z,4.70
2023-03-04T07:35:31.103Z,4.70
2023-03-04T07:37:58.198Z,4.70
2023-03-04T07:40:25.556Z,4.70
2023-03-04T07:42:54.196Z,4.90
2023-03-04T07:45:22.644Z,5.00
2023-03-04T07:47:50.034Z,5.00
2023-03-04T07:50:18.480Z,5.10
2023-03-04T07:52:47.362Z,5.10
2023-03-04T07:55:17.051Z,5.00
2023-03-04T07:57:46.417Z,5.00
2023-03-04T08:00:16.390Z,5.00
2023-03-04T08:02:43.769Z,5.00
2023-03-04T08:05:11.242Z,5.10
2023-03-04T08:07:38.299Z,5.10
2023-03-04T08:10:06.413Z,5.00
2023-03-04T08:12:34.253Z,4.80
2023-03-04T08:15:01.601Z,4.80
2023-03-04T08:17:29.850Z,4.70
2023-03-04T08:19:57.213Z,4.70
2023-03-04T08:22:24.464Z,4.70
2023-03-04T08:24:51.844Z,4.70
2023-03-04T08:27:20.561Z,4.70
2023-03-04T08:29:47.896Z,4.80
2023-03-04T08:32:14.934Z,4.90
2023-03-04T08:34:42.365Z,4.80
2023-03-04T08:37:09.811Z,4.80
2023-03-04T08:39:37.793Z,5.20
2023-03-04T08:42:04.939Z,5.10
2023-03-04T08:44:32.327Z,5.40
2023-03-04T08:46:59.376Z,5.50
2023-03-04T08:49:26.617Z,5.50
2023-03-04T08:51:53.589Z,5.70
2023-03-04T08:54:21.252Z,5.90
2023-03-04T08:56:48.302Z,6.00
2023-03-04T08:59:19.409Z,5.90
2023-03-04T09:01:46.554Z,6.00
2023-03-04T09:04:13.877Z,6.00
2023-03-04T09:06:43.018Z,6.10
2023-03-04T09:09:10.509Z,6.10
2023-03-04T09:11:38.136Z,6.10
2023-03-04T09:14:08.763Z,6.20
2023-03-04T09:16:36.988Z,6.30
2023-03-04T09:19:04.390Z,6.20
2023-03-04T09:21:31.391Z,6.30
2023-03-04T09:23:58.725Z,6.20
2023-03-04T09:26:28.016Z,6.10
2023-03-04T09:28:58.416Z,6.70
2023-03-04T09:31:26.722Z,6.10
2023-03-04T09:33:55.515Z,6.30
2023-03-04T09:36:23.120Z,6.30
2023-03-04T09:38:50.784Z,6.30
2023-03-04T09:41:41.301Z,6.40
2023-03-04T09:44:47.420Z,6.40
2023-03-04T09:47:19.775Z,6.30
2023-03-04T09:49:58.585Z,6.40
2023-03-04T09:52:42.830Z,6.40
2023-03-04T09:55:26.198Z,6.30
2023-03-04T09:58:07.372Z,6.20
2023-03-04T10:00:43.377Z,6.10
2023-03-04T10:03:10.541Z,6.00
2023-03-04T10:05:46.370Z,5.90
2023-03-04T10:08:31.270Z,5.80
2023-03-04T10:11:01.723Z,5.70
2023-03-04T10:13:47.270Z,5.60
2023-03-04T10:16:20.474Z,5.50
2023-03-04T10:18:55.972Z,5.50
2023-03-04T10:21:29.148Z,5.50
2023-03-04T10:23:59.980Z,5.50
2023-03-04T10:26:33.118Z,5.60
2023-03-04T10:29:03.044Z,5.70
2023-03-04T10:31:37.033Z,5.90
2023-03-04T10:34:07.666Z,6.10
2023-03-04T10:36:51.817Z,6.30
2023-03-04T10:39:31.699Z,6.40
2023-03-04T10:42:22.473Z,6.50
2023-03-04T10:44:58.607Z,6.40
2023-03-04T10:47:28.465Z,6.20
2023-03-04T10:50:04.389Z,5.90
2023-03-04T10:52:38.850Z,5.70
2023-03-04T10:55:17.864Z,5.60
2023-03-04T10:57:49.915Z,5.60
2023-03-04T11:00:24.431Z,8.60
2023-03-04T11:02:52.020Z,5.70
2023-03-04T11:05:22.763Z,5.50
2023-03-04T11:07:56.322Z,5.80
2023-03-04T11:10:25.847Z,6.30
2023-03-04T11:12:59.727Z,6.10
2023-03-04T11:15:31.277Z,6.10
2023-03-04T11:18:06.126Z,6.30
2023-03-04T11:20:36.444Z,6.00
2023-03-04T11:23:19.759Z,6.10
2023-03-04T11:26:14.678Z,6.20
2023-03-04T11:29:02.270Z,6.00
2023-03-04T11:31:43.350Z,6.00
2023-03-04T11:34:30.902Z,6.10
2023-03-04T11:37:17.716Z,6.20
2023-03-04T11:39:51.511Z,6.10
2023-03-04T11:42:29.263Z,5.90
2023-03-04T11:44:58.176Z,6.00
2023-03-04T11:47:55.795Z,6.00
2023-03-04T11:50:41.603Z,5.90
2023-03-04T11:53:12.397Z,5.70
2023-03-04T11:56:12.345Z,5.60
2023-03-04T11:58:51.084Z,5.50
2023-03-04T12:01:51.472Z,5.50
2023-03-04T12:04:30.195Z,5.40
2023-03-04T12:07:19.658Z,5.40
2023-03-04T12:10:06.270Z,5.20
2023-03-04T12:12:55.872Z,5.20
2023-03-04T12:15:32.858Z,5.20
2023-03-04T12:18:28.817Z,5.10
2023-03-04T12:21:22.283Z,5.20
2023-03-04T12:24:08.204Z,5.30
2023-03-04T12:26:59.960Z,5.50
2023-03-04T12:29:39.281Z,5.60
2023-03-04T12:32:24.513Z,5.90
2023-03-04T12:35:00.744Z,5.90
2023-03-04T12:38:00.233Z,5.80
2023-03-04T12:40:57.173Z,5.70
2023-03-04T12:43:41.524Z,5.60
2023-03-04T12:46:17.411Z,5.50
2023-03-04T12:49:00.169Z,5.40
2023-03-04T12:51:47.892Z,5.70
2023-03-04T12:54:37.227Z,5.80
2023-03-04T12:57:17.175Z,5.70
2023-03-04T12:59:53.106Z,5.60
2023-03-04T13:02:35.834Z,5.50
2023-03-04T13:05:19.466Z,5.30
2023-03-04T13:08:08.242Z,5.20
2023-03-04T13:10:36.373Z,5.10
2023-03-04T13:13:04.176Z,5.00
2023-03-04T13:15:38.648Z,5.10
2023-03-04T13:18:27.675Z,5.10
2023-03-04T13:21:26.390Z,5.20
2023-03-04T13:23:55.334Z,5.00
2023-03-04T13:26:34.284Z,5.30
2023-03-04T13:29:13.780Z,5.00
2023-03-04T13:32:11.627Z,5.00
2023-03-04T13:34:44.870Z,5.20
2023-03-04T13:37:37.000Z,5.10
2023-03-04T13:40:27.387Z,5.30
2023-03-04T13:42:54.670Z,5.00
2023-03-04T13:45:40.133Z,5.10
2023-03-04T13:48:32.499Z,5.00
2023-03-04T13:51:00.090Z,4.80
2023-03-04T13:53:39.082Z,4.40
2023-03-04T13:56:18.778Z,4.20
2023-03-04T13:58:47.697Z,4.10
2023-03-04T14:01:33.990Z,4.10
2023-03-04T14:04:11.194Z,4.00
2023-03-04T14:06:43.790Z,3.90
2023-03-04T14:09:21.977Z,3.80
2023-03-04T14:11:53.029Z,3.70
2023-03-04T14:14:43.880Z,3.70
2023-03-04T14:17:23.301Z,3.40
2023-03-04T14:19:53.950Z,3.20
2023-03-04T14:22:38.120Z,3.00
2023-03-04T14:25:13.252Z,2.90
2023-03-04T14:27:41.091Z,2.90
2023-03-04T14:30:26.114Z,2.80
2023-03-04T14:33:03.123Z,2.80
2023-03-04T14:35:31.931Z,2.70
2023-03-04T14:37:59.295Z,2.60
2023-03-04T14:40:30.178Z,2.50
2023-03-04T14:43:05.594Z,2.40
2023-03-04T14:45:32.675Z,2.40
2023-03-04T14:48:06.840Z,2.30
2023-03-04T14:50:36.731Z,2.30
2023-03-04T14:53:11.094Z,2.40
2023-03-04T14:55:38.418Z,2.30
2023-03-04T14:58:21.710Z,2.30
2023-03-04T15:00:49.885Z,2.30
2023-03-04T15:03:25.202Z,2.20
2023-03-04T15:05:53.021Z,2.20
2023-03-04T15:08:28.943Z,2.20
2023-03-04T15:11:02.275Z,2.10
2023-03-04T15:13:45.133Z,2.10
2023-03-04T15:16:17.344Z,2.00
2023-03-04T15:18:59.986Z,2.10
2023-03-04T15:21:34.436Z,2.00
2023-03-04T15:24:06.380Z,2.00
2023-03-04T15:26:37.935Z,1.90
2023-03-04T15:29:25.648Z,1.80
2023-03-04T15:31:52.744Z,1.60
2023-03-04T15:34:21.621Z,1.60
2023-03-04T15:37:00.109Z,1.70
2023-03-04T15:39:27.789Z,1.60
2023-03-04T15:41:56.928Z,1.60
2023-03-04T15:44:24.681Z,1.50
2023-03-04T15:46:51.956Z,1.40
2023-03-04T15:49:19.427Z,1.10
2023-03-04T15:51:46.635Z,1.30
2023-03-04T15:54:14.268Z,1.30
2023-03-04T15:56:41.518Z,1.30
2023-03-04T15:59:17.310Z,1.30
2023-03-04T16:01:45.010Z,1.30
2023-03-04T16:04:20.022Z,1.30
2023-03-04T16:06:49.997Z,0.80
2023-03-04T16:09:22.540Z,2.00
2023-03-04T16:11:49.617Z,1.00
2023-03-04T16:14:17.146Z,1.10
2023-03-04T16:16:44.608Z,0.90
2023-03-04T16:19:12.141Z,0.90
2023-03-04T16:21:40.033Z,0.80
2023-03-04T16:24:19.988Z,0.90
2023-03-04T16:26:47.821Z,0.80
2023-03-04T16:29:16.312Z,0.70
2023-03-04T16:31:43.459Z,0.60
2023-03-04T16:34:12.475Z,0.50
2023-03-04T16:36:41.773Z,0.40
2023-03-04T16:39:20.137Z,0.30
2023-03-04T16:41:47.464Z,0.70
2023-03-04T16:44:14.902Z,0.40
2023-03-04T16:49:12.315Z,-0.30
2023-03-04T16:51:48.236Z,-0.20
2023-03-04T16:54:26.602Z,-0.30
2023-03-04T16:56:53.671Z,-0.40
2023-03-04T16:59:21.044Z,0.40
2023-03-04T17:01:49.249Z,-0.50
2023-03-04T17:04:16.783Z,-0.60
2023-03-04T17:06:45.121Z,-0.50
2023-03-04T17:09:12.838Z,-0.90
2023-03-04T17:11:40.214Z,-0.70
2023-03-04T17:14:08.786Z,-0.40
2023-03-04T17:16:36.194Z,-1.20
2023-03-04T17:19:05.383Z,0.40
2023-03-04T17:21:33.122Z,-0.90
2023-03-04T17:26:39.798Z,-0.80
2023-03-04T17:29:07.276Z,-0.80
2023-03-04T17:31:36.436Z,-0.80
2023-03-04T17:34:03.819Z,-0.70
2023-03-04T17:36:31.063Z,-0.80
2023-03-04T17:39:03.002Z,-1.00
2023-03-04T17:41:35.714Z,-0.90
2023-03-04T17:44:04.184Z,-1.00
2023-03-04T17:46:31.434Z,-1.20
2023-03-04T17:48:59.494Z,-1.10
2023-03-04T17:51:35.430Z,-0.90
2023-03-04T17:54:05.619Z,-0.80
2023-03-04T17:56:33.678Z,-1.00
2023-03-04T17:59:03.690Z,-1.20
2023-03-04T18:01:31.411Z,-1.20
2023-03-04T18:03:58.452Z,-1.00
2023-03-04T18:06:26.090Z,-1.50
2023-03-04T18:08:53.299Z,-1.10
2023-03-04T18:11:22.652Z,-1.20
2023-03-04T18:13:51.747Z,-1.40
2023-03-04T18:16:26.596Z,-1.30
2023-03-04T18:18:55.296Z,-1.40
2023-03-04T18:21:22.594Z,-1.30
2023-03-04T18:23:49.726Z,-1.10
2023-03-04T18:26:20.825Z,-1.60
2023-03-04T18:28:48.437Z,-1.70
2023-03-04T18:31:20.053Z,-1.50
2023-03-04T18:33:47.452Z,-1.40
2023-03-04T18:36:15.693Z,-1.30
2023-03-04T18:38:43.749Z,-1.60
2023-03-04T18:41:14.468Z,-1.80
2023-03-04T18:43:42.359Z,-1.70
2023-03-04T18:46:18.584Z,-1.40
2023-03-04T18:48:48.894Z,-2.20
2023-03-04T18:51:19.415Z,-2.10
2023-03-04T18:53:46.491Z,-1.70
2023-03-04T18:56:21.355Z,-2.10
2023-03-04T18:58:50.384Z,-1.50
2023-03-04T19:01:23.162Z,-1.90
2023-03-04T19:03:50.911Z,-1.70
2023-03-04T19:06:18.841Z,-1.60
2023-03-04T19:08:45.935Z,-1.80
2023-03-04T19:11:13.408Z,-1.80
2023-03-04T19:13:40.922Z,-1.80
2023-03-04T19:16:08.683Z,-2.00
2023-03-04T19:18:36.252Z,-2.10
2023-03-04T19:21:05.478Z,-1.90
2023-03-04T19:23:32.810Z,-2.00
2023-03-04T19:26:00.395Z,-2.20
2023-03-04T19:28:27.717Z,-1.90
2023-03-04T19:30:58.830Z,-2.00
2023-03-04T19:33:26.750Z,-2.10
2023-03-04T19:35:54.085Z,-2.50
2023-03-04T19:38:22.074Z,-2.10
2023-03-04T19:40:49.371Z,-1.90
2023-03-04T19:43:16.713Z,-1.00
2023-03-04T19:45:53.449Z,-2.00
2023-03-04T19:48:22.347Z,-1.90
2023-03-04T19:50:50.614Z,-1.80
2023-03-04T19:53:18.785Z,-2.70
2023-03-04T19:55:49.040Z,-2.40
2023-03-04T19:58:16.652Z,-2.20
2023-03-04T20:00:45.178Z,-1.90
2023-03-04T20:03:13.550Z,-1.90
2023-03-04T20:05:41.043Z,-2.40
2023-03-04T20:08:08.256Z,-2.10
2023-03-04T20:10:37.433Z,-2.20
2023-03-04T20:13:06.198Z,-2.10
2023-03-04T20:15:35.073Z,-1.90
2023-03-04T20:18:04.916Z,-2.40
2023-03-04T20:20:32.333Z,-2.20
2023-03-04T20:22:59.524Z,-2.40
2023-03-04T20:25:31.297Z,-2.10
2023-03-04T20:28:01.704Z,0.30
2023-03-04T20:30:32.173Z,-2.40
2023-03-04T20:32:59.403Z,-2.50
2023-03-04T20:35:26.889Z,-2.30
2023-03-04T20:37:59.647Z,-2.50
2023-03-04T20:40:29.592Z,-2.40
2023-03-04T20:42:56.702Z,-2.40
2023-03-04T20:45:26.108Z,-2.50
2023-03-04T20:47:53.314Z,-2.30
2023-03-04T20:50:22.771Z,-2.30
2023-03-04T20:52:49.893Z,-2.30
2023-03-04T20:57:45.719Z,-2.30
2023-03-04T21:00:13.751Z,-2.50
2023-03-04T21:02:43.236Z,-2.40
2023-03-04T21:05:14.219Z,-1.90
2023-03-04T21:07:41.518Z,-2.20
2023-03-04T21:10:09.370Z,-2.30
2023-03-04T21:12:36.425Z,-2.40
2023-03-04T21:15:04.297Z,-2.60
2023-03-04T21:17:31.488Z,-2.60
2023-03-04T21:19:58.813Z,-2.20
2023-03-04T21:22:27.004Z,-2.60
2023-03-04T21:24:54.453Z,-2.30
2023-03-04T21:27:21.697Z,-2.50
2023-03-04T21:29:49.600Z,-2.90
2023-03-04T21:32:25.290Z,-2.50
2023-03-04T21:34:54.392Z,-2.70
2023-03-04T21:37:23.802Z,-2.60
2023-03-04T21:39:51.758Z,-2.90
2023-03-04T21:42:19.548Z,-2.90
2023-03-04T21:44:50.084Z,-3.00
2023-03-04T21:47:18.900Z,-2.60
2023-03-04T21:49:46.664Z,-2.60
2023-03-04T21:57:09.794Z,-2.30
2023-03-04T21:59:38.358Z,-2.30
2023-03-04T22:02:05.847Z,-1.60
2023-03-04T22:04:33.436Z,-2.60
2023-03-04T22:07:01.963Z,-2.90
2023-03-04T22:09:29.887Z,-2.60
2023-03-04T22:11:56.964Z,-2.40
2023-03-04T22:14:24.568Z,-2.40
2023-03-04T22:16:56.021Z,-2.60
2023-03-04T22:19:26.449Z,-2.00
2023-03-04T22:21:54.157Z,-3.20
2023-03-04T22:24:21.660Z,-2.80
2023-03-04T22:26:49.161Z,-2.60
2023-03-04T22:29:16.493Z,-2.80
2023-03-04T22:31:43.519Z,-2.80
2023-03-04T22:34:15.359Z,-2.90
2023-03-04T22:36:46.336Z,-2.40
2023-03-04T22:39:16.901Z,-2.40
2023-03-04T22:41:44.470Z,-2.60
2023-03-04T22:44:12.044Z,-2.60
2023-03-04T22:46:39.926Z,-2.30
2023-03-04T22:49:12.974Z,-2.50
2023-03-04T22:51:42.414Z,-2.40
2023-03-04T22:54:17.670Z,-2.80
2023-03-04T22:56:44.852Z,-2.60
2023-03-04T22:59:12.938Z,-2.30
2023-03-04T23:01:41.040Z,-2.70
2023-03-04T23:04:08.568Z,-2.40
2023-03-04T23:06:36.420Z,-2.80
2023-03-04T23:09:05.199Z,-3.20
2023-03-04T23:11:35.354Z,-2.70
2023-03-04T23:14:07.218Z,-3.00
2023-03-04T23:16:39.351Z,-2.60
2023-03-04T23:19:07.233Z,-3.10
2023-03-04T23:21:35.158Z,-2.70
2023-03-04T23:24:04.117Z,-3.00
2023-03-04T23:26:38.727Z,-2.80
2023-03-04T23:29:08.411Z,-2.90
2023-03-04T23:31:36.088Z,-2.90
2023-03-04T23:34:07.086Z,-3.20
2023-03-04T23:36:37.768Z,-3.10
2023-03-04T23:39:07.449Z,-3.20
2023-03-04T23:41:36.924Z,-2.00
2023-03-04T23:44:05.639Z,-3.40
2023-03-04T23:46:33.398Z,-3.20
2023-03-04T23:49:03.102Z,-3.00
2023-03-04T23:51:30.656Z,-2.90
2023-03-04T23:53:59.426Z,-3.40
2023-03-04T23:56:31.003Z,-3.30
2023-03-04T23:59:00.896Z,-3.10
